MSC Lea — 9HA2639 — position and weather

sailwx.info

Track history (hours):
 
Tides and Currents Weather Stations Pressure Air Temp Water Temp Dewpoint Dewpoint Depression Visibility Wind Speed Wind Dir Waves Ship Positions

MSC Lea

Last reported at 2017-Jan-16 21:34 UTC. Time now 2017-Jan-18 08:05 UTC.
Position N 32°02' E 034°10'.

Length 217 m; draft 8.6 m.

Type: Ship (hazmat cat A). MMSI: 215101000.

Date/timePositionNaut miles runAvg speedWind from/ knotsBaromVisibWave heightAir tempDewpointWater temp
2017-Jan-16 21:34N 32°02' E 034°10'2113.8
2017-Jan-16 20:04N 31°52' E 034°31'610.5
2017-Jan-16 19:29N 31°51' E 034°38'1 0.0
2017-Jan-16 02:34N 31°51' E 034°38'15 4.9
2017-Jan-15 23:34N 32°05' E 034°32'9 9.1
2017-Jan-15 22:33N 32°14' E 034°35'9 9.2
2017-Jan-15 21:33N 32°23' E 034°38'9 9.4
2017-Jan-15 20:34N 32°32' E 034°41'10 9.6
2017-Jan-15 19:33N 32°41' E 034°45'9 9.4
2017-Jan-15 18:34N 32°50' E 034°48'9 8.9
2017-Jan-15 17:33N 32°52' E 034°58'4 3.7
2017-Jan-15 16:31N 32°49' E 035°01'0 0.0
2017-Jan-15 15:31N 32°49' E 035°01'0 0.0
2017-Jan-15 14:32N 32°49' E 035°01'0 0.0
2017-Jan-15 11:28N 32°49' E 035°01'0 0.0
2017-Jan-15 10:32N 32°49' E 035°01'0 0.0
2017-Jan-15 09:32N 32°49' E 035°01'0 0.0
2017-Jan-15 08:33N 32°49' E 035°01'0 0.0
2017-Jan-15 07:31N 32°49' E 035°01'0 0.0
2017-Jan-15 06:28N 32°49' E 035°01'0 0.0
2017-Jan-15 05:32N 32°49' E 035°01'0 0.0
2017-Jan-15 04:33N 32°49' E 035°01'1 1.0
2017-Jan-15 03:34N 32°50' E 035°01'4 4.0
2017-Jan-15 02:33N 32°52' E 034°58'9 8.8
2017-Jan-15 01:31N 32°55' E 034°47'  
2017-Jan-12 10:26N 38°29' E 019°51'48613.6
2017-Jan-10 22:34N 44°45' E 012°58'1514.7
2017-Jan-10 21:33N 44°59' E 012°49'1414.2
2017-Jan-10 20:34N 45°10' E 012°36'1312.8
2017-Jan-10 19:33N 45°19' E 012°24'8 7.9
2017-Jan-10 18:33N 45°24' E 012°16'3 3.3
2017-Jan-10 17:33N 45°27' E 012°15'0 0.0
2017-Jan-10 16:31N 45°27' E 012°15'0 0.0
2017-Jan-10 15:32N 45°27' E 012°15'0 0.0
2017-Jan-10 14:32N 45°27' E 012°15'0 0.0
2017-Jan-10 13:33N 45°27' E 012°15'0 0.0
2017-Jan-10 12:31N 45°27' E 012°15'0 0.0
2017-Jan-10 11:31N 45°27' E 012°15'0 0.0
2017-Jan-10 10:32N 45°27' E 012°15'0 0.0
2017-Jan-10 09:33N 45°27' E 012°15'0 0.0
2017-Jan-10 08:33N 45°27' E 012°15'0 0.0
2017-Jan-10 07:31N 45°27' E 012°15'0 0.2
2017-Jan-10 06:33N 45°27' E 012°16'7 6.7
2017-Jan-10 05:34N 45°21' E 012°16'7 7.1
2017-Jan-10 04:33N 45°19' E 012°26'5 4.7
2017-Jan-10 03:34N 45°17' E 012°32'7 6.9
2017-Jan-10 02:33N 45°13' E 012°40'9 8.9
2017-Jan-10 01:34N 45°07' E 012°50'1110.8
2017-Jan-10 00:33N 44°57' E 012°55'9 9.2
2017-Jan-09 23:33N 44°48' E 012°59'9 8.7
2017-Jan-09 22:33N 44°45' E 012°48'1010.2
2017-Jan-09 21:33N 44°35' E 012°49'15 7.3
2017-Jan-09 19:27N 44°29' E 012°29'9 9.0
2017-Jan-09 18:29N 44°30' E 012°17'0 0.0
2017-Jan-09 06:06N 44°30' E 012°17'5 6.0
2017-Jan-09 05:11N 44°30' E 012°24'4 6.0
2017-Jan-09 04:28N 44°30' E 012°31'16 1.2
2017-Jan-08 15:07N 44°42' E 012°46'813.8
2017-Jan-08 14:33N 44°49' E 012°50'1413.8
2017-Jan-08 13:34N 45°01' E 012°58'1413.7
2017-Jan-08 12:34N 45°15' E 013°00'1313.1
2017-Jan-08 11:33N 45°27' E 013°08'1413.8
2017-Jan-08 10:34N 45°35' E 013°24'1313.4
2017-Jan-08 09:33N 45°39' E 013°42'3 2.6
2017-Jan-08 08:32N 45°38' E 013°46'0 0.0
2017-Jan-08 07:33N 45°38' E 013°46'0 0.0
2017-Jan-08 06:33N 45°38' E 013°46'0 0.0
2017-Jan-08 05:31N 45°38' E 013°46'0 0.0
2017-Jan-08 04:32N 45°38' E 013°46'0 0.0
2017-Jan-08 03:32N 45°38' E 013°46'0 0.0
2017-Jan-08 02:33N 45°38' E 013°46'0 0.0
2017-Jan-08 01:31N 45°38' E 013°46'0 0.0
2017-Jan-08 00:31N 45°38' E 013°46'0 0.0
2017-Jan-07 23:32N 45°38' E 013°46'0 0.0
2017-Jan-07 22:33N 45°38' E 013°46'3 3.0
2017-Jan-07 21:33N 45°40' E 013°43'0 0.3
2017-Jan-07 20:31N 45°40' E 013°42'0 0.0
2017-Jan-07 19:31N 45°40' E 013°42'0 0.0
2017-Jan-07 18:32N 45°40' E 013°42'0 0.0
2017-Jan-07 17:33N 45°40' E 013°42'0 0.2
2017-Jan-07 16:27N 45°40' E 013°42'0 0.0
2017-Jan-07 15:19N 45°40' E 013°42'0 0.1
2017-Jan-07 14:33N 45°40' E 013°42'6 6.5
2017-Jan-07 13:33N 45°33' E 013°43'1 0.9
2017-Jan-07 12:32N 45°33' E 013°44'0 0.0
2017-Jan-07 11:33N 45°33' E 013°44'0 0.0
2017-Jan-07 10:33N 45°33' E 013°44'0 0.0
2017-Jan-07 09:31N 45°33' E 013°44'0 0.0
2017-Jan-07 08:32N 45°33' E 013°44'0 0.0
2017-Jan-07 07:32N 45°33' E 013°44'0 0.0
2017-Jan-07 06:33N 45°33' E 013°44'0 0.0
2017-Jan-07 05:31N 45°33' E 013°44'1 1.4
2017-Jan-07 04:33N 45°34' E 013°42'1111.4
2017-Jan-07 03:33N 45°32' E 013°26'1616.4
2017-Jan-07 02:33N 45°18' E 013°13'1818.0
2017-Jan-07 01:34N 45°01' E 013°20'1818.5
2017-Jan-07 00:34N 44°45' E 013°34'1818.4
2017-Jan-06 23:34N 44°30' E 013°48'1817.8
2017-Jan-06 22:33N 44°15' E 014°01'  
Track history (hours):
 
Tides and Currents Weather Stations Pressure Air Temp Water Temp Dewpoint Dewpoint Depression Visibility Wind Speed Wind Dir Waves Ship Positions

MSC Lea

Last reported at 2017-Jan-16 21:34 UTC. Time now 2017-Jan-18 08:05 UTC.
Position N 32°02' E 034°10'.

Length 217 m; draft 8.6 m.

Type: Ship (hazmat cat A). MMSI: 215101000.

Date/timePositionNaut miles runAvg speedWind from/ knotsBaromVisibWave heightAir tempDewpointWater temp
2017-Jan-16 21:34N 32°02' E 034°10'2113.8
2017-Jan-16 20:04N 31°52' E 034°31'610.5
2017-Jan-16 19:29N 31°51' E 034°38'1 0.0
2017-Jan-16 02:34N 31°51' E 034°38'15 4.9
2017-Jan-15 23:34N 32°05' E 034°32'9 9.1
2017-Jan-15 22:33N 32°14' E 034°35'9 9.2
2017-Jan-15 21:33N 32°23' E 034°38'9 9.4
2017-Jan-15 20:34N 32°32' E 034°41'10 9.6
2017-Jan-15 19:33N 32°41' E 034°45'9 9.4
2017-Jan-15 18:34N 32°50' E 034°48'9 8.9
2017-Jan-15 17:33N 32°52' E 034°58'4 3.7
2017-Jan-15 16:31N 32°49' E 035°01'0 0.0
2017-Jan-15 15:31N 32°49' E 035°01'0 0.0
2017-Jan-15 14:32N 32°49' E 035°01'0 0.0
2017-Jan-15 11:28N 32°49' E 035°01'0 0.0
2017-Jan-15 10:32N 32°49' E 035°01'0 0.0
2017-Jan-15 09:32N 32°49' E 035°01'0 0.0
2017-Jan-15 08:33N 32°49' E 035°01'0 0.0
2017-Jan-15 07:31N 32°49' E 035°01'0 0.0
2017-Jan-15 06:28N 32°49' E 035°01'0 0.0
2017-Jan-15 05:32N 32°49' E 035°01'0 0.0
2017-Jan-15 04:33N 32°49' E 035°01'1 1.0
2017-Jan-15 03:34N 32°50' E 035°01'4 4.0
2017-Jan-15 02:33N 32°52' E 034°58'9 8.8
2017-Jan-15 01:31N 32°55' E 034°47'  
2017-Jan-12 10:26N 38°29' E 019°51'48613.6
2017-Jan-10 22:34N 44°45' E 012°58'1514.7
2017-Jan-10 21:33N 44°59' E 012°49'1414.2
2017-Jan-10 20:34N 45°10' E 012°36'1312.8
2017-Jan-10 19:33N 45°19' E 012°24'8 7.9
2017-Jan-10 18:33N 45°24' E 012°16'3 3.3
2017-Jan-10 17:33N 45°27' E 012°15'0 0.0
2017-Jan-10 16:31N 45°27' E 012°15'0 0.0
2017-Jan-10 15:32N 45°27' E 012°15'0 0.0
2017-Jan-10 14:32N 45°27' E 012°15'0 0.0
2017-Jan-10 13:33N 45°27' E 012°15'0 0.0
2017-Jan-10 12:31N 45°27' E 012°15'0 0.0
2017-Jan-10 11:31N 45°27' E 012°15'0 0.0
2017-Jan-10 10:32N 45°27' E 012°15'0 0.0
2017-Jan-10 09:33N 45°27' E 012°15'0 0.0
2017-Jan-10 08:33N 45°27' E 012°15'0 0.0
2017-Jan-10 07:31N 45°27' E 012°15'0 0.2
2017-Jan-10 06:33N 45°27' E 012°16'7 6.7
2017-Jan-10 05:34N 45°21' E 012°16'7 7.1
2017-Jan-10 04:33N 45°19' E 012°26'5 4.7
2017-Jan-10 03:34N 45°17' E 012°32'7 6.9
2017-Jan-10 02:33N 45°13' E 012°40'9 8.9
2017-Jan-10 01:34N 45°07' E 012°50'1110.8
2017-Jan-10 00:33N 44°57' E 012°55'9 9.2
2017-Jan-09 23:33N 44°48' E 012°59'9 8.7
2017-Jan-09 22:33N 44°45' E 012°48'1010.2
2017-Jan-09 21:33N 44°35' E 012°49'15 7.3
2017-Jan-09 19:27N 44°29' E 012°29'9 9.0
2017-Jan-09 18:29N 44°30' E 012°17'0 0.0
2017-Jan-09 06:06N 44°30' E 012°17'5 6.0
2017-Jan-09 05:11N 44°30' E 012°24'4 6.0
2017-Jan-09 04:28N 44°30' E 012°31'16 1.2
2017-Jan-08 15:07N 44°42' E 012°46'813.8
2017-Jan-08 14:33N 44°49' E 012°50'1413.8
2017-Jan-08 13:34N 45°01' E 012°58'1413.7
2017-Jan-08 12:34N 45°15' E 013°00'1313.1
2017-Jan-08 11:33N 45°27' E 013°08'1413.8
2017-Jan-08 10:34N 45°35' E 013°24'1313.4
2017-Jan-08 09:33N 45°39' E 013°42'3 2.6
2017-Jan-08 08:32N 45°38' E 013°46'0 0.0
2017-Jan-08 07:33N 45°38' E 013°46'0 0.0
2017-Jan-08 06:33N 45°38' E 013°46'0 0.0
2017-Jan-08 05:31N 45°38' E 013°46'0 0.0
2017-Jan-08 04:32N 45°38' E 013°46'0 0.0
2017-Jan-08 03:32N 45°38' E 013°46'0 0.0
2017-Jan-08 02:33N 45°38' E 013°46'0 0.0
2017-Jan-08 01:31N 45°38' E 013°46'0 0.0
2017-Jan-08 00:31N 45°38' E 013°46'0 0.0
2017-Jan-07 23:32N 45°38' E 013°46'0 0.0
2017-Jan-07 22:33N 45°38' E 013°46'3 3.0
2017-Jan-07 21:33N 45°40' E 013°43'0 0.3
2017-Jan-07 20:31N 45°40' E 013°42'0 0.0
2017-Jan-07 19:31N 45°40' E 013°42'0 0.0
2017-Jan-07 18:32N 45°40' E 013°42'0 0.0
2017-Jan-07 17:33N 45°40' E 013°42'0 0.2
2017-Jan-07 16:27N 45°40' E 013°42'0 0.0
2017-Jan-07 15:19N 45°40' E 013°42'0 0.1
2017-Jan-07 14:33N 45°40' E 013°42'6 6.5
2017-Jan-07 13:33N 45°33' E 013°43'1 0.9
2017-Jan-07 12:32N 45°33' E 013°44'0 0.0
2017-Jan-07 11:33N 45°33' E 013°44'0 0.0
2017-Jan-07 10:33N 45°33' E 013°44'0 0.0
2017-Jan-07 09:31N 45°33' E 013°44'0 0.0
2017-Jan-07 08:32N 45°33' E 013°44'0 0.0
2017-Jan-07 07:32N 45°33' E 013°44'0 0.0
2017-Jan-07 06:33N 45°33' E 013°44'0 0.0
2017-Jan-07 05:31N 45°33' E 013°44'1 1.4
2017-Jan-07 04:33N 45°34' E 013°42'1111.4
2017-Jan-07 03:33N 45°32' E 013°26'1616.4
2017-Jan-07 02:33N 45°18' E 013°13'1818.0
2017-Jan-07 01:34N 45°01' E 013°20'1818.5
2017-Jan-07 00:34N 44°45' E 013°34'1818.4
2017-Jan-06 23:34N 44°30' E 013°48'1817.8
2017-Jan-06 22:33N 44°15' E 014°01'  

Dump ship's entire track history